sensor_id;sensor_type;location;lat;lon;timestamp;P1;durP1;ratioP1;P2;durP2;ratioP2
22764;SDS011;11549;50.852;3.816;2023-08-06T00:02:13;18.27;;;12.07;;
22764;SDS011;11549;50.852;3.816;2023-08-06T00:04:41;17.80;;;11.40;;
22764;SDS011;11549;50.852;3.816;2023-08-06T00:07:09;18.08;;;12.35;;
22764;SDS011;11549;50.852;3.816;2023-08-06T00:09:39;18.98;;;12.30;;
22764;SDS011;11549;50.852;3.816;2023-08-06T00:12:07;23.77;;;13.20;;
22764;SDS011;11549;50.852;3.816;2023-08-06T00:14:36;17.45;;;12.82;;
22764;SDS011;11549;50.852;3.816;2023-08-06T00:17:04;21.40;;;13.10;;
22764;SDS011;11549;50.852;3.816;2023-08-06T00:19:33;22.83;;;13.40;;
22764;SDS011;11549;50.852;3.816;2023-08-06T00:22:01;21.13;;;12.25;;
22764;SDS011;11549;50.852;3.816;2023-08-06T00:24:29;19.20;;;11.60;;
22764;SDS011;11549;50.852;3.816;2023-08-06T00:26:59;17.83;;;10.80;;
22764;SDS011;11549;50.852;3.816;2023-08-06T00:29:27;19.15;;;10.60;;
22764;SDS011;11549;50.852;3.816;2023-08-06T00:31:56;17.50;;;10.88;;
22764;SDS011;11549;50.852;3.816;2023-08-06T00:34:24;18.35;;;11.02;;
22764;SDS011;11549;50.852;3.816;2023-08-06T00:36:52;16.35;;;10.27;;
22764;SDS011;11549;50.852;3.816;2023-08-06T00:39:21;15.57;;;10.05;;
22764;SDS011;11549;50.852;3.816;2023-08-06T00:41:49;13.50;;;8.07;;
22764;SDS011;11549;50.852;3.816;2023-08-06T00:44:19;13.32;;;7.20;;
22764;SDS011;11549;50.852;3.816;2023-08-06T00:46:48;14.73;;;7.05;;
22764;SDS011;11549;50.852;3.816;2023-08-06T00:49:16;12.88;;;5.63;;
22764;SDS011;11549;50.852;3.816;2023-08-06T00:51:44;12.88;;;3.83;;
22764;SDS011;11549;50.852;3.816;2023-08-06T00:54:13;9.27;;;3.53;;
22764;SDS011;11549;50.852;3.816;2023-08-06T00:56:42;10.73;;;2.70;;
22764;SDS011;11549;50.852;3.816;2023-08-06T00:59:11;5.35;;;2.10;;
22764;SDS011;11549;50.852;3.816;2023-08-06T01:01:41;10.32;;;2.00;;
22764;SDS011;11549;50.852;3.816;2023-08-06T01:04:09;5.72;;;1.50;;
22764;SDS011;11549;50.852;3.816;2023-08-06T01:06:41;9.98;;;2.17;;
22764;SDS011;11549;50.852;3.816;2023-08-06T01:09:19;5.80;;;1.35;;
22764;SDS011;11549;50.852;3.816;2023-08-06T01:11:59;13.50;;;2.00;;
22764;SDS011;11549;50.852;3.816;2023-08-06T01:14:36;10.80;;;1.75;;
22764;SDS011;11549;50.852;3.816;2023-08-06T01:17:14;4.43;;;1.50;;
22764;SDS011;11549;50.852;3.816;2023-08-06T01:19:42;5.78;;;1.67;;
22764;SDS011;11549;50.852;3.816;2023-08-06T01:22:12;8.68;;;1.90;;
22764;SDS011;11549;50.852;3.816;2023-08-06T01:24:40;8.68;;;2.20;;
22764;SDS011;11549;50.852;3.816;2023-08-06T01:27:14;9.85;;;2.78;;
22764;SDS011;11549;50.852;3.816;2023-08-06T01:29:52;10.07;;;2.10;;
22764;SDS011;11549;50.852;3.816;2023-08-06T01:32:24;9.68;;;2.30;;
22764;SDS011;11549;50.852;3.816;2023-08-06T01:34:54;11.07;;;3.75;;
22764;SDS011;11549;50.852;3.816;2023-08-06T01:37:24;13.73;;;3.90;;
22764;SDS011;11549;50.852;3.816;2023-08-06T01:39:52;14.57;;;4.75;;
22764;SDS011;11549;50.852;3.816;2023-08-06T01:42:21;10.95;;;4.90;;
22764;SDS011;11549;50.852;3.816;2023-08-06T01:44:49;14.05;;;5.28;;
22764;SDS011;11549;50.852;3.816;2023-08-06T01:47:17;18.95;;;5.47;;
22764;SDS011;11549;50.852;3.816;2023-08-06T01:49:45;16.23;;;6.15;;
22764;SDS011;11549;50.852;3.816;2023-08-06T01:52:14;16.92;;;5.88;;
22764;SDS011;11549;50.852;3.816;2023-08-06T01:54:44;13.98;;;5.72;;
22764;SDS011;11549;50.852;3.816;2023-08-06T01:57:12;14.57;;;6.10;;
22764;SDS011;11549;50.852;3.816;2023-08-06T01:59:40;14.77;;;6.90;;
22764;SDS011;11549;50.852;3.816;2023-08-06T02:02:08;15.85;;;6.18;;
22764;SDS011;11549;50.852;3.816;2023-08-06T02:04:37;15.05;;;5.75;;
22764;SDS011;11549;50.852;3.816;2023-08-06T02:07:05;11.88;;;4.72;;
22764;SDS011;11549;50.852;3.816;2023-08-06T02:09:33;6.57;;;3.45;;
22764;SDS011;11549;50.852;3.816;2023-08-06T02:12:03;5.68;;;3.25;;
22764;SDS011;11549;50.852;3.816;2023-08-06T02:14:32;5.03;;;2.30;;
22764;SDS011;11549;50.852;3.816;2023-08-06T02:17:01;3.72;;;2.10;;
22764;SDS011;11549;50.852;3.816;2023-08-06T02:19:30;4.97;;;1.83;;
22764;SDS011;11549;50.852;3.816;2023-08-06T02:21:59;3.53;;;1.83;;
22764;SDS011;11549;50.852;3.816;2023-08-06T02:24:28;4.07;;;2.42;;
22764;SDS011;11549;50.852;3.816;2023-08-06T02:26:56;4.57;;;2.70;;
22764;SDS011;11549;50.852;3.816;2023-08-06T02:29:26;5.25;;;2.53;;
22764;SDS011;11549;50.852;3.816;2023-08-06T02:31:56;10.75;;;2.92;;
22764;SDS011;11549;50.852;3.816;2023-08-06T02:34:24;5.05;;;2.35;;
22764;SDS011;11549;50.852;3.816;2023-08-06T02:36:52;8.68;;;2.90;;
22764;SDS011;11549;50.852;3.816;2023-08-06T02:39:21;5.40;;;3.00;;
22764;SDS011;11549;50.852;3.816;2023-08-06T02:41:49;8.13;;;3.47;;
22764;SDS011;11549;50.852;3.816;2023-08-06T02:44:18;5.18;;;2.70;;
22764;SDS011;11549;50.852;3.816;2023-08-06T02:46:48;8.80;;;2.70;;
22764;SDS011;11549;50.852;3.816;2023-08-06T02:49:16;8.52;;;2.83;;
22764;SDS011;11549;50.852;3.816;2023-08-06T02:51:44;11.00;;;2.95;;
22764;SDS011;11549;50.852;3.816;2023-08-06T02:54:13;5.97;;;2.92;;
22764;SDS011;11549;50.852;3.816;2023-08-06T02:56:42;10.68;;;3.30;;
22764;SDS011;11549;50.852;3.816;2023-08-06T02:59:11;8.57;;;3.80;;
22764;SDS011;11549;50.852;3.816;2023-08-06T03:01:40;9.52;;;3.90;;
22764;SDS011;11549;50.852;3.816;2023-08-06T03:04:10;8.80;;;3.45;;
22764;SDS011;11549;50.852;3.816;2023-08-06T03:06:38;10.25;;;4.15;;
22764;SDS011;11549;50.852;3.816;2023-08-06T03:09:06;10.82;;;4.38;;
22764;SDS011;11549;50.852;3.816;2023-08-06T03:11:35;13.52;;;4.65;;
22764;SDS011;11549;50.852;3.816;2023-08-06T03:14:03;11.20;;;4.93;;
22764;SDS011;11549;50.852;3.816;2023-08-06T03:16:31;9.13;;;4.85;;
22764;SDS011;11549;50.852;3.816;2023-08-06T03:18:59;11.05;;;5.53;;
22764;SDS011;11549;50.852;3.816;2023-08-06T03:21:29;12.20;;;6.35;;
22764;SDS011;11549;50.852;3.816;2023-08-06T03:23:58;9.95;;;7.13;;
22764;SDS011;11549;50.852;3.816;2023-08-06T03:26:26;16.10;;;7.68;;
22764;SDS011;11549;50.852;3.816;2023-08-06T03:28:55;13.73;;;7.85;;
22764;SDS011;11549;50.852;3.816;2023-08-06T03:31:23;16.80;;;8.90;;
22764;SDS011;11549;50.852;3.816;2023-08-06T03:33:51;12.93;;;8.35;;
22764;SDS011;11549;50.852;3.816;2023-08-06T03:36:19;13.88;;;8.48;;
22764;SDS011;11549;50.852;3.816;2023-08-06T03:38:49;12.93;;;7.90;;
22764;SDS011;11549;50.852;3.816;2023-08-06T03:41:17;14.50;;;7.40;;
22764;SDS011;11549;50.852;3.816;2023-08-06T03:43:46;12.98;;;7.05;;
22764;SDS011;11549;50.852;3.816;2023-08-06T03:46:14;12.60;;;6.40;;
22764;SDS011;11549;50.852;3.816;2023-08-06T03:48:42;15.05;;;6.47;;
22764;SDS011;11549;50.852;3.816;2023-08-06T03:51:10;11.52;;;6.13;;
22764;SDS011;11549;50.852;3.816;2023-08-06T03:53:39;14.60;;;6.40;;
22764;SDS011;11549;50.852;3.816;2023-08-06T03:56:09;14.45;;;6.28;;
22764;SDS011;11549;50.852;3.816;2023-08-06T03:58:37;13.63;;;6.20;;
22764;SDS011;11549;50.852;3.816;2023-08-06T04:01:05;14.35;;;6.93;;
22764;SDS011;11549;50.852;3.816;2023-08-06T04:03:35;17.15;;;6.60;;
22764;SDS011;11549;50.852;3.816;2023-08-06T04:06:03;17.42;;;6.45;;
22764;SDS011;11549;50.852;3.816;2023-08-06T04:08:31;16.83;;;6.25;;
22764;SDS011;11549;50.852;3.816;2023-08-06T04:11:00;18.70;;;6.97;;
22764;SDS011;11549;50.852;3.816;2023-08-06T04:13:29;12.98;;;5.60;;
22764;SDS011;11549;50.852;3.816;2023-08-06T04:16:00;16.77;;;6.15;;
22764;SDS011;11549;50.852;3.816;2023-08-06T04:18:29;14.75;;;5.97;;
22764;SDS011;11549;50.852;3.816;2023-08-06T04:20:57;16.00;;;6.13;;
22764;SDS011;11549;50.852;3.816;2023-08-06T04:23:25;16.35;;;5.95;;
22764;SDS011;11549;50.852;3.816;2023-08-06T04:25:56;16.60;;;5.82;;
22764;SDS011;11549;50.852;3.816;2023-08-06T04:28:24;20.52;;;5.43;;
22764;SDS011;11549;50.852;3.816;2023-08-06T04:30:54;18.40;;;4.90;;
22764;SDS011;11549;50.852;3.816;2023-08-06T04:33:22;13.55;;;4.68;;
22764;SDS011;11549;50.852;3.816;2023-08-06T04:35:53;16.10;;;4.65;;
22764;SDS011;11549;50.852;3.816;2023-08-06T04:38:23;13.70;;;4.18;;
22764;SDS011;11549;50.852;3.816;2023-08-06T04:40:52;13.23;;;4.45;;
22764;SDS011;11549;50.852;3.816;2023-08-06T04:43:21;15.98;;;4.40;;
22764;SDS011;11549;50.852;3.816;2023-08-06T04:45:50;13.85;;;4.45;;
22764;SDS011;11549;50.852;3.816;2023-08-06T04:48:21;14.50;;;4.45;;
22764;SDS011;11549;50.852;3.816;2023-08-06T04:50:50;14.18;;;4.30;;
22764;SDS011;11549;50.852;3.816;2023-08-06T04:53:18;10.13;;;3.75;;
22764;SDS011;11549;50.852;3.816;2023-08-06T04:55:46;13.43;;;4.47;;
22764;SDS011;11549;50.852;3.816;2023-08-06T04:58:15;13.15;;;4.15;;
22764;SDS011;11549;50.852;3.816;2023-08-06T05:00:43;12.80;;;4.18;;
22764;SDS011;11549;50.852;3.816;2023-08-06T05:03:12;11.48;;;3.88;;
22764;SDS011;11549;50.852;3.816;2023-08-06T05:05:41;14.45;;;4.47;;
22764;SDS011;11549;50.852;3.816;2023-08-06T05:08:13;11.25;;;4.35;;
22764;SDS011;11549;50.852;3.816;2023-08-06T05:10:43;11.88;;;3.95;;
22764;SDS011;11549;50.852;3.816;2023-08-06T05:13:12;12.10;;;3.70;;
22764;SDS011;11549;50.852;3.816;2023-08-06T05:15:40;13.85;;;4.15;;
22764;SDS011;11549;50.852;3.816;2023-08-06T05:18:11;12.32;;;3.88;;
22764;SDS011;11549;50.852;3.816;2023-08-06T05:20:40;11.13;;;4.43;;
22764;SDS011;11549;50.852;3.816;2023-08-06T05:23:10;13.68;;;4.10;;
22764;SDS011;11549;50.852;3.816;2023-08-06T05:25:38;13.38;;;4.40;;
22764;SDS011;11549;50.852;3.816;2023-08-06T05:28:06;14.30;;;4.47;;
22764;SDS011;11549;50.852;3.816;2023-08-06T05:30:38;11.48;;;4.47;;
22764;SDS011;11549;50.852;3.816;2023-08-06T05:33:07;15.25;;;5.00;;
22764;SDS011;11549;50.852;3.816;2023-08-06T05:35:35;15.18;;;5.38;;
22764;SDS011;11549;50.852;3.816;2023-08-06T05:38:05;11.00;;;5.03;;
22764;SDS011;11549;50.852;3.816;2023-08-06T05:40:33;14.23;;;5.45;;
22764;SDS011;11549;50.852;3.816;2023-08-06T05:43:02;14.68;;;6.43;;
22764;SDS011;11549;50.852;3.816;2023-08-06T05:45:30;15.02;;;5.50;;
22764;SDS011;11549;50.852;3.816;2023-08-06T05:47:58;15.63;;;5.88;;
22764;SDS011;11549;50.852;3.816;2023-08-06T05:50:27;13.88;;;5.60;;
22764;SDS011;11549;50.852;3.816;2023-08-06T05:52:55;14.98;;;5.88;;
22764;SDS011;11549;50.852;3.816;2023-08-06T05:55:28;17.13;;;5.97;;
22764;SDS011;11549;50.852;3.816;2023-08-06T05:57:58;14.35;;;5.32;;
22764;SDS011;11549;50.852;3.816;2023-08-06T06:00:26;18.67;;;6.00;;
22764;SDS011;11549;50.852;3.816;2023-08-06T06:02:54;15.80;;;5.30;;
22764;SDS011;11549;50.852;3.816;2023-08-06T06:05:23;10.98;;;4.60;;
22764;SDS011;11549;50.852;3.816;2023-08-06T06:07:51;8.70;;;2.90;;
22764;SDS011;11549;50.852;3.816;2023-08-06T06:10:19;12.82;;;2.92;;
22764;SDS011;11549;50.852;3.816;2023-08-06T06:12:49;11.25;;;2.88;;
22764;SDS011;11549;50.852;3.816;2023-08-06T06:15:17;8.73;;;2.33;;
22764;SDS011;11549;50.852;3.816;2023-08-06T06:17:45;10.40;;;2.35;;
22764;SDS011;11549;50.852;3.816;2023-08-06T06:20:14;13.65;;;2.70;;
22764;SDS011;11549;50.852;3.816;2023-08-06T06:22:42;10.80;;;2.65;;
22764;SDS011;11549;50.852;3.816;2023-08-06T06:25:10;12.00;;;2.75;;
22764;SDS011;11549;50.852;3.816;2023-08-06T06:27:39;10.88;;;2.53;;
22764;SDS011;11549;50.852;3.816;2023-08-06T06:30:10;10.52;;;2.38;;
22764;SDS011;11549;50.852;3.816;2023-08-06T06:32:39;14.85;;;2.58;;
22764;SDS011;11549;50.852;3.816;2023-08-06T06:35:08;11.65;;;2.30;;
22764;SDS011;11549;50.852;3.816;2023-08-06T06:37:36;10.18;;;2.13;;
22764;SDS011;11549;50.852;3.816;2023-08-06T06:40:05;7.22;;;1.67;;
22764;SDS011;11549;50.852;3.816;2023-08-06T06:42:34;10.18;;;1.92;;
22764;SDS011;11549;50.852;3.816;2023-08-06T06:45:03;11.13;;;1.90;;
22764;SDS011;11549;50.852;3.816;2023-08-06T06:47:33;8.55;;;2.00;;
22764;SDS011;11549;50.852;3.816;2023-08-06T06:50:01;8.80;;;1.75;;
22764;SDS011;11549;50.852;3.816;2023-08-06T06:52:30;9.32;;;1.83;;
22764;SDS011;11549;50.852;3.816;2023-08-06T06:54:58;12.10;;;2.22;;
22764;SDS011;11549;50.852;3.816;2023-08-06T06:57:26;12.68;;;2.10;;
22764;SDS011;11549;50.852;3.816;2023-08-06T06:59:55;12.45;;;2.30;;
22764;SDS011;11549;50.852;3.816;2023-08-06T07:02:23;11.63;;;2.45;;
22764;SDS011;11549;50.852;3.816;2023-08-06T07:04:53;11.20;;;2.55;;
22764;SDS011;11549;50.852;3.816;2023-08-06T07:07:21;9.38;;;2.08;;
22764;SDS011;11549;50.852;3.816;2023-08-06T07:09:50;13.80;;;2.40;;
22764;SDS011;11549;50.852;3.816;2023-08-06T07:12:18;10.07;;;2.22;;
22764;SDS011;11549;50.852;3.816;2023-08-06T07:14:48;17.75;;;2.90;;
22764;SDS011;11549;50.852;3.816;2023-08-06T07:17:16;13.35;;;2.95;;
22764;SDS011;11549;50.852;3.816;2023-08-06T07:19:45;10.70;;;2.40;;
22764;SDS011;11549;50.852;3.816;2023-08-06T07:22:14;12.98;;;3.13;;
22764;SDS011;11549;50.852;3.816;2023-08-06T07:24:42;11.98;;;2.60;;
22764;SDS011;11549;50.852;3.816;2023-08-06T07:27:11;10.70;;;3.00;;
22764;SDS011;11549;50.852;3.816;2023-08-06T07:29:39;12.02;;;2.80;;
22764;SDS011;11549;50.852;3.816;2023-08-06T07:32:07;11.20;;;2.72;;
22764;SDS011;11549;50.852;3.816;2023-08-06T07:34:36;10.00;;;2.88;;
22764;SDS011;11549;50.852;3.816;2023-08-06T07:37:04;10.77;;;2.30;;
22764;SDS011;11549;50.852;3.816;2023-08-06T07:39:34;7.32;;;2.30;;
22764;SDS011;11549;50.852;3.816;2023-08-06T07:42:04;8.90;;;1.88;;
22764;SDS011;11549;50.852;3.816;2023-08-06T07:44:33;6.35;;;1.77;;
22764;SDS011;11549;50.852;3.816;2023-08-06T07:47:01;8.23;;;1.83;;
22764;SDS011;11549;50.852;3.816;2023-08-06T07:49:30;10.43;;;1.80;;
22764;SDS011;11549;50.852;3.816;2023-08-06T07:51:58;8.30;;;1.80;;
22764;SDS011;11549;50.852;3.816;2023-08-06T07:54:27;7.80;;;1.83;;
22764;SDS011;11549;50.852;3.816;2023-08-06T07:56:57;9.65;;;2.33;;
22764;SDS011;11549;50.852;3.816;2023-08-06T07:59:25;9.48;;;2.22;;
22764;SDS011;11549;50.852;3.816;2023-08-06T08:01:53;9.93;;;2.30;;
22764;SDS011;11549;50.852;3.816;2023-08-06T08:04:21;12.55;;;1.90;;
22764;SDS011;11549;50.852;3.816;2023-08-06T08:06:50;8.38;;;1.80;;
22764;SDS011;11549;50.852;3.816;2023-08-06T08:09:19;9.07;;;2.05;;
22764;SDS011;11549;50.852;3.816;2023-08-06T08:11:47;9.98;;;2.30;;
22764;SDS011;11549;50.852;3.816;2023-08-06T08:14:18;11.07;;;2.20;;
22764;SDS011;11549;50.852;3.816;2023-08-06T08:16:46;10.23;;;2.30;;
22764;SDS011;11549;50.852;3.816;2023-08-06T08:19:15;8.60;;;2.42;;
22764;SDS011;11549;50.852;3.816;2023-08-06T08:21:43;9.57;;;2.70;;
22764;SDS011;11549;50.852;3.816;2023-08-06T08:24:11;11.38;;;2.60;;
22764;SDS011;11549;50.852;3.816;2023-08-06T08:26:40;10.23;;;2.25;;
22764;SDS011;11549;50.852;3.816;2023-08-06T08:29:08;8.50;;;2.75;;
22764;SDS011;11549;50.852;3.816;2023-08-06T08:31:38;9.88;;;2.60;;
22764;SDS011;11549;50.852;3.816;2023-08-06T08:34:06;11.18;;;2.65;;
22764;SDS011;11549;50.852;3.816;2023-08-06T08:36:35;11.43;;;2.60;;
22764;SDS011;11549;50.852;3.816;2023-08-06T08:39:03;12.75;;;2.92;;
22764;SDS011;11549;50.852;3.816;2023-08-06T08:41:31;12.93;;;2.95;;
22764;SDS011;11549;50.852;3.816;2023-08-06T08:44:01;14.82;;;3.00;;
22764;SDS011;11549;50.852;3.816;2023-08-06T08:46:30;11.30;;;2.47;;
22764;SDS011;11549;50.852;3.816;2023-08-06T08:49:02;10.30;;;2.60;;
22764;SDS011;11549;50.852;3.816;2023-08-06T08:51:30;10.25;;;2.22;;
22764;SDS011;11549;50.852;3.816;2023-08-06T08:54:00;9.25;;;2.35;;
22764;SDS011;11549;50.852;3.816;2023-08-06T08:56:31;12.15;;;2.53;;
22764;SDS011;11549;50.852;3.816;2023-08-06T08:58:59;8.57;;;2.20;;
22764;SDS011;11549;50.852;3.816;2023-08-06T09:01:28;11.48;;;2.33;;
22764;SDS011;11549;50.852;3.816;2023-08-06T09:03:58;7.28;;;1.95;;
22764;SDS011;11549;50.852;3.816;2023-08-06T09:06:28;11.45;;;2.28;;
22764;SDS011;11549;50.852;3.816;2023-08-06T09:09:01;9.30;;;2.50;;
22764;SDS011;11549;50.852;3.816;2023-08-06T09:11:37;8.35;;;2.30;;
22764;SDS011;11549;50.852;3.816;2023-08-06T09:14:10;9.35;;;2.50;;
22764;SDS011;11549;50.852;3.816;2023-08-06T09:16:39;12.73;;;2.33;;
22764;SDS011;11549;50.852;3.816;2023-08-06T09:19:08;12.43;;;2.78;;
22764;SDS011;11549;50.852;3.816;2023-08-06T09:21:38;9.30;;;2.20;;
22764;SDS011;11549;50.852;3.816;2023-08-06T09:24:08;8.48;;;2.30;;
22764;SDS011;11549;50.852;3.816;2023-08-06T09:26:37;10.38;;;2.20;;
22764;SDS011;11549;50.852;3.816;2023-08-06T09:29:05;8.32;;;2.42;;
22764;SDS011;11549;50.852;3.816;2023-08-06T09:31:41;8.20;;;2.00;;
22764;SDS011;11549;50.852;3.816;2023-08-06T09:34:10;10.80;;;2.38;;
22764;SDS011;11549;50.852;3.816;2023-08-06T09:36:42;11.02;;;2.80;;
22764;SDS011;11549;50.852;3.816;2023-08-06T09:39:12;8.70;;;1.83;;
22764;SDS011;11549;50.852;3.816;2023-08-06T09:41:41;13.70;;;2.60;;
22764;SDS011;11549;50.852;3.816;2023-08-06T09:44:16;9.55;;;2.05;;
22764;SDS011;11549;50.852;3.816;2023-08-06T09:46:47;8.55;;;2.30;;
22764;SDS011;11549;50.852;3.816;2023-08-06T09:49:15;10.63;;;2.35;;
22764;SDS011;11549;50.852;3.816;2023-08-06T09:51:45;7.50;;;1.77;;
22764;SDS011;11549;50.852;3.816;2023-08-06T09:54:18;10.40;;;2.25;;
22764;SDS011;11549;50.852;3.816;2023-08-06T09:56:53;9.27;;;2.17;;
22764;SDS011;11549;50.852;3.816;2023-08-06T09:59:22;11.82;;;2.53;;
22764;SDS011;11549;50.852;3.816;2023-08-06T10:01:52;7.57;;;2.03;;
22764;SDS011;11549;50.852;3.816;2023-08-06T10:04:23;8.88;;;2.30;;
22764;SDS011;11549;50.852;3.816;2023-08-06T10:07:05;11.35;;;2.30;;
22764;SDS011;11549;50.852;3.816;2023-08-06T10:09:33;8.77;;;2.17;;
22764;SDS011;11549;50.852;3.816;2023-08-06T10:12:02;9.50;;;2.47;;
22764;SDS011;11549;50.852;3.816;2023-08-06T10:14:32;12.00;;;2.80;;
22764;SDS011;11549;50.852;3.816;2023-08-06T10:17:03;10.65;;;3.08;;
22764;SDS011;11549;50.852;3.816;2023-08-06T10:19:31;10.40;;;2.63;;
22764;SDS011;11549;50.852;3.816;2023-08-06T10:22:12;14.50;;;3.28;;
22764;SDS011;11549;50.852;3.816;2023-08-06T10:24:48;9.88;;;2.70;;
22764;SDS011;11549;50.852;3.816;2023-08-06T10:27:20;10.25;;;2.70;;
22764;SDS011;11549;50.852;3.816;2023-08-06T10:29:49;9.45;;;2.75;;
22764;SDS011;11549;50.852;3.816;2023-08-06T10:32:18;11.38;;;2.35;;
22764;SDS011;11549;50.852;3.816;2023-08-06T10:34:53;10.50;;;2.72;;
22764;SDS011;11549;50.852;3.816;2023-08-06T10:37:25;8.77;;;2.38;;
22764;SDS011;11549;50.852;3.816;2023-08-06T10:40:03;8.07;;;2.13;;
22764;SDS011;11549;50.852;3.816;2023-08-06T10:42:34;7.68;;;2.15;;
22764;SDS011;11549;50.852;3.816;2023-08-06T10:45:13;7.50;;;2.20;;
22764;SDS011;11549;50.852;3.816;2023-08-06T10:47:43;8.18;;;1.83;;
22764;SDS011;11549;50.852;3.816;2023-08-06T10:50:12;9.23;;;2.45;;
22764;SDS011;11549;50.852;3.816;2023-08-06T10:52:44;8.10;;;2.15;;
22764;SDS011;11549;50.852;3.816;2023-08-06T10:55:13;7.60;;;2.08;;
22764;SDS011;11549;50.852;3.816;2023-08-06T10:57:49;6.82;;;1.98;;
22764;SDS011;11549;50.852;3.816;2023-08-06T11:00:17;8.90;;;2.53;;
22764;SDS011;11549;50.852;3.816;2023-08-06T11:02:46;9.85;;;1.95;;
22764;SDS011;11549;50.852;3.816;2023-08-06T11:05:16;8.07;;;1.80;;
22764;SDS011;11549;50.852;3.816;2023-08-06T11:07:45;9.23;;;1.73;;
22764;SDS011;11549;50.852;3.816;2023-08-06T11:10:16;10.10;;;1.90;;
22764;SDS011;11549;50.852;3.816;2023-08-06T11:12:44;8.25;;;1.60;;
22764;SDS011;11549;50.852;3.816;2023-08-06T11:15:12;9.73;;;2.10;;
22764;SDS011;11549;50.852;3.816;2023-08-06T11:17:41;6.43;;;1.80;;
22764;SDS011;11549;50.852;3.816;2023-08-06T11:20:09;9.52;;;2.10;;
22764;SDS011;11549;50.852;3.816;2023-08-06T11:22:40;8.93;;;2.58;;
22764;SDS011;11549;50.852;3.816;2023-08-06T11:25:09;8.60;;;2.90;;
22764;SDS011;11549;50.852;3.816;2023-08-06T11:27:38;8.27;;;2.60;;
22764;SDS011;11549;50.852;3.816;2023-08-06T11:30:06;10.10;;;2.72;;
22764;SDS011;11549;50.852;3.816;2023-08-06T11:32:44;9.07;;;2.92;;
22764;SDS011;11549;50.852;3.816;2023-08-06T11:35:14;10.65;;;3.22;;
22764;SDS011;11549;50.852;3.816;2023-08-06T11:37:44;8.43;;;2.40;;
22764;SDS011;11549;50.852;3.816;2023-08-06T11:40:15;8.73;;;2.28;;
22764;SDS011;11549;50.852;3.816;2023-08-06T11:42:44;9.90;;;2.78;;
22764;SDS011;11549;50.852;3.816;2023-08-06T11:45:14;9.27;;;2.30;;
22764;SDS011;11549;50.852;3.816;2023-08-06T11:47:42;11.38;;;2.92;;
22764;SDS011;11549;50.852;3.816;2023-08-06T11:50:22;11.60;;;2.70;;
22764;SDS011;11549;50.852;3.816;2023-08-06T11:52:52;8.57;;;2.22;;
22764;SDS011;11549;50.852;3.816;2023-08-06T11:55:24;11.45;;;2.28;;
22764;SDS011;11549;50.852;3.816;2023-08-06T11:57:53;8.23;;;2.20;;
22764;SDS011;11549;50.852;3.816;2023-08-06T12:00:22;11.93;;;2.60;;
22764;SDS011;11549;50.852;3.816;2023-08-06T12:02:52;7.50;;;2.42;;
22764;SDS011;11549;50.852;3.816;2023-08-06T12:05:22;8.73;;;2.58;;
22764;SDS011;11549;50.852;3.816;2023-08-06T12:07:51;10.82;;;2.72;;
22764;SDS011;11549;50.852;3.816;2023-08-06T12:10:23;7.57;;;2.53;;
22764;SDS011;11549;50.852;3.816;2023-08-06T12:12:53;9.43;;;2.53;;
22764;SDS011;11549;50.852;3.816;2023-08-06T12:15:22;6.82;;;2.17;;
22764;SDS011;11549;50.852;3.816;2023-08-06T12:17:50;10.50;;;2.85;;
22764;SDS011;11549;50.852;3.816;2023-08-06T12:20:18;10.13;;;2.72;;
22764;SDS011;11549;50.852;3.816;2023-08-06T12:22:47;8.57;;;2.63;;
22764;SDS011;11549;50.852;3.816;2023-08-06T12:25:16;9.18;;;2.40;;
22764;SDS011;11549;50.852;3.816;2023-08-06T12:27:46;10.73;;;2.90;;
22764;SDS011;11549;50.852;3.816;2023-08-06T12:30:14;9.43;;;2.38;;
22764;SDS011;11549;50.852;3.816;2023-08-06T12:32:42;9.40;;;2.67;;
22764;SDS011;11549;50.852;3.816;2023-08-06T12:35:11;9.70;;;2.65;;
22764;SDS011;11549;50.852;3.816;2023-08-06T12:37:40;9.68;;;2.50;;
22764;SDS011;11549;50.852;3.816;2023-08-06T12:40:10;11.40;;;3.25;;
22764;SDS011;11549;50.852;3.816;2023-08-06T12:43:00;11.50;;;2.67;;
22764;SDS011;11549;50.852;3.816;2023-08-06T12:45:28;8.95;;;2.17;;
22764;SDS011;11549;50.852;3.816;2023-08-06T12:47:57;13.50;;;2.63;;
22764;SDS011;11549;50.852;3.816;2023-08-06T12:50:25;9.57;;;2.20;;
22764;SDS011;11549;50.852;3.816;2023-08-06T12:52:53;7.13;;;1.90;;
22764;SDS011;11549;50.852;3.816;2023-08-06T12:55:22;6.32;;;2.22;;
22764;SDS011;11549;50.852;3.816;2023-08-06T12:57:50;10.73;;;2.67;;
22764;SDS011;11549;50.852;3.816;2023-08-06T13:00:26;10.07;;;2.00;;
22764;SDS011;11549;50.852;3.816;2023-08-06T13:02:54;6.55;;;1.95;;
22764;SDS011;11549;50.852;3.816;2023-08-06T13:05:23;9.27;;;2.03;;
22764;SDS011;11549;50.852;3.816;2023-08-06T13:07:51;8.48;;;1.92;;
22764;SDS011;11549;50.852;3.816;2023-08-06T13:10:20;6.13;;;1.80;;
22764;SDS011;11549;50.852;3.816;2023-08-06T13:12:49;7.93;;;1.63;;
22764;SDS011;11549;50.852;3.816;2023-08-06T13:15:17;5.72;;;1.80;;
22764;SDS011;11549;50.852;3.816;2023-08-06T13:17:49;7.78;;;1.83;;
22764;SDS011;11549;50.852;3.816;2023-08-06T13:20:18;7.85;;;2.03;;
22764;SDS011;11549;50.852;3.816;2023-08-06T13:22:47;6.45;;;1.75;;
22764;SDS011;11549;50.852;3.816;2023-08-06T13:25:17;9.07;;;2.20;;
22764;SDS011;11549;50.852;3.816;2023-08-06T13:27:46;10.23;;;2.03;;
22764;SDS011;11549;50.852;3.816;2023-08-06T13:30:14;9.90;;;2.30;;
22764;SDS011;11549;50.852;3.816;2023-08-06T13:32:44;9.60;;;1.88;;
22764;SDS011;11549;50.852;3.816;2023-08-06T13:35:14;9.63;;;2.30;;
22764;SDS011;11549;50.852;3.816;2023-08-06T13:37:42;9.50;;;2.25;;
22764;SDS011;11549;50.852;3.816;2023-08-06T13:40:10;7.90;;;1.90;;
22764;SDS011;11549;50.852;3.816;2023-08-06T13:42:39;5.88;;;1.33;;
22764;SDS011;11549;50.852;3.816;2023-08-06T13:45:08;6.65;;;1.27;;
22764;SDS011;11549;50.852;3.816;2023-08-06T13:47:36;3.83;;;1.20;;
22764;SDS011;11549;50.852;3.816;2023-08-06T13:50:05;6.20;;;1.58;;
22764;SDS011;11549;50.852;3.816;2023-08-06T13:52:35;5.53;;;1.70;;
22764;SDS011;11549;50.852;3.816;2023-08-06T13:55:03;8.05;;;2.00;;
22764;SDS011;11549;50.852;3.816;2023-08-06T13:57:32;8.00;;;1.90;;
22764;SDS011;11549;50.852;3.816;2023-08-06T14:00:01;6.40;;;1.80;;
22764;SDS011;11549;50.852;3.816;2023-08-06T14:02:32;9.75;;;2.20;;
22764;SDS011;11549;50.852;3.816;2023-08-06T14:05:00;8.50;;;1.92;;
22764;SDS011;11549;50.852;3.816;2023-08-06T14:07:29;7.82;;;1.98;;
22764;SDS011;11549;50.852;3.816;2023-08-06T14:09:58;8.35;;;2.05;;
22764;SDS011;11549;50.852;3.816;2023-08-06T14:12:27;7.07;;;2.30;;
22764;SDS011;11549;50.852;3.816;2023-08-06T14:14:55;9.02;;;2.03;;
22764;SDS011;11549;50.852;3.816;2023-08-06T14:17:23;7.90;;;2.38;;
22764;SDS011;11549;50.852;3.816;2023-08-06T14:19:51;10.30;;;2.30;;
22764;SDS011;11549;50.852;3.816;2023-08-06T14:22:20;8.75;;;2.45;;
22764;SDS011;11549;50.852;3.816;2023-08-06T14:24:49;8.07;;;2.45;;
22764;SDS011;11549;50.852;3.816;2023-08-06T14:27:18;11.15;;;2.38;;
22764;SDS011;11549;50.852;3.816;2023-08-06T14:29:47;10.68;;;2.30;;
22764;SDS011;11549;50.852;3.816;2023-08-06T14:32:15;8.57;;;2.30;;
22764;SDS011;11549;50.852;3.816;2023-08-06T14:34:44;8.70;;;2.80;;
22764;SDS011;11549;50.852;3.816;2023-08-06T14:37:13;8.63;;;2.75;;
22764;SDS011;11549;50.852;3.816;2023-08-06T14:39:41;10.27;;;2.85;;
22764;SDS011;11549;50.852;3.816;2023-08-06T14:42:09;9.23;;;2.75;;
22764;SDS011;11549;50.852;3.816;2023-08-06T14:44:42;9.95;;;2.65;;
22764;SDS011;11549;50.852;3.816;2023-08-06T14:47:10;12.30;;;2.88;;
22764;SDS011;11549;50.852;3.816;2023-08-06T14:49:38;11.88;;;2.88;;
22764;SDS011;11549;50.852;3.816;2023-08-06T14:52:07;11.02;;;2.72;;
22764;SDS011;11549;50.852;3.816;2023-08-06T14:54:35;7.95;;;2.53;;